Time;durP1;ratioP1;P1;durP2;ratioP2;P2;SDS_P1;SDS_P2;PMS_P1;PMS_P2;Temp;Humidity;BMP_temperature;BMP_pressure;BME280_temperature;BME280_humidity;BME280_pressure;Samples;Min_cycle;Max_cycle;Signal;HPM_P1;HPM_P2
2022/03/03 00:02:04;;;;;;;42.92;22.42;;;2.10;98.40;;;;;;5080369;28;20488;-65
2022/03/03 00:04:31;;;;;;;40.47;23.60;;;2.00;98.70;;;;;;5083719;28;20036;-65
2022/03/03 00:06:58;;;;;;;;;;;2.00;99.40;;;;;;5085052;28;20048;-65
2022/03/03 00:09:24;;;;;;;43.05;24.13;;;1.90;99.90;;;;;;5084138;28;19924;-65
2022/03/03 00:11:51;;;;;;;;;;;1.80;99.90;;;;;;5084529;28;20036;-65
2022/03/03 00:14:18;;;;;;;41.83;22.50;;;1.70;99.90;;;;;;5083788;28;19919;-65
2022/03/03 00:16:45;;;;;;;47.00;24.30;;;1.60;99.90;;;;;;5083735;28;20562;-65
2022/03/03 00:19:12;;;;;;;;;;;1.60;99.90;;;;;;5084953;28;20043;-65
2022/03/03 00:21:38;;;;;;;42.85;21.95;;;1.50;99.90;;;;;;5084081;28;19936;-65
2022/03/03 00:24:05;;;;;;;;;;;1.50;99.90;;;;;;5084374;28;20028;-65
2022/03/03 00:26:32;;;;;;;39.90;22.33;;;1.50;99.90;;;;;;5083127;28;20398;-65
2022/03/03 00:28:59;;;;;;;37.60;21.65;;;1.50;99.90;;;;;;5083372;28;20097;-65
2022/03/03 00:31:26;;;;;;;;;;;1.50;99.90;;;;;;5084457;28;20056;-65
2022/03/03 00:33:53;;;;;;;43.00;24.75;;;1.40;99.90;;;;;;5072460;28;20405;-65
2022/03/03 00:36:19;;;;;;;;;;;1.40;99.90;;;;;;5063899;28;20497;-65
2022/03/03 00:38:48;;;;;;;46.38;23.58;;;1.50;99.90;;;;;;5062813;28;19978;-66
2022/03/03 00:41:14;;;;;;;41.85;24.48;;;1.50;99.90;;;;;;5063193;28;20098;-65
2022/03/03 00:43:41;;;;;;;40.63;24.75;;;1.50;99.90;;;;;;5073035;28;20040;-65
2022/03/03 00:46:08;;;;;;;;;;;1.50;99.90;;;;;;5084170;28;20044;-65
2022/03/03 00:48:35;;;;;;;39.65;23.70;;;1.50;99.90;;;;;;5083983;28;20555;-65
2022/03/03 00:51:06;;;;;;;;;;;1.50;99.90;;;;;;5082064;28;20137;-65
2022/03/03 00:53:34;;;;;;;40.35;24.23;;;1.60;99.90;;;;;;5047777;28;19928;-65
2022/03/03 00:56:01;;;;;;;46.70;27.23;;;1.60;99.90;;;;;;5043365;28;20124;-65
2022/03/03 00:58:28;;;;;;;;;;;1.60;99.90;;;;;;5044451;28;20045;-65
2022/03/03 01:00:54;;;;;;;41.28;24.80;;;1.60;99.90;;;;;;5056140;28;19924;-65
2022/03/03 01:03:25;;;;;;;58.35;28.45;;;1.60;99.90;;;;;;5062276;28;20044;-65
2022/03/03 01:05:53;;;;;;;42.75;25.20;;;1.60;99.90;;;;;;5063111;28;20083;-65
2022/03/03 01:08:19;;;;;;;52.90;30.13;;;1.70;99.90;;;;;;5062984;28;20507;-65
2022/03/03 01:10:46;;;;;;;;;;;1.70;99.90;;;;;;5063460;28;20102;-65
2022/03/03 01:13:13;;;;;;;43.97;24.85;;;1.70;99.90;;;;;;5062237;28;20339;-65
2022/03/03 01:15:40;;;;;;;44.47;24.02;;;1.70;99.90;;;;;;5063181;28;20048;-65
2022/03/03 01:18:06;;;;;;;38.97;22.20;;;1.80;99.90;;;;;;5062743;28;20090;-65
2022/03/03 01:20:33;;;;;;;;;;;1.80;99.90;;;;;;5063602;28;20078;-65
2022/03/03 01:23:00;;;;;;;36.97;20.92;;;1.80;99.90;;;;;;5061942;28;19986;-65
2022/03/03 01:25:27;;;;;;;;;;;1.90;99.90;;;;;;5063021;28;20044;-65
2022/03/03 01:27:53;;;;;;;38.30;21.45;;;1.90;99.90;;;;;;5062625;28;19921;-66
2022/03/03 01:30:20;;;;;;;;;;;1.90;99.90;;;;;;5063285;28;20040;-65
2022/03/03 01:32:47;;;;;;;35.20;19.77;;;1.90;99.90;;;;;;5063262;28;20001;-64
2022/03/03 01:35:13;;;;;;;33.00;19.48;;;1.90;99.90;;;;;;5082038;28;20387;-65
2022/03/03 01:37:40;;;;;;;35.72;19.60;;;1.90;99.90;;;;;;5082739;28;20060;-65
2022/03/03 01:40:08;;;;;;;32.50;19.77;;;1.90;99.90;;;;;;5082254;28;20062;-65
2022/03/03 01:42:34;;;;;;;36.58;20.33;;;1.90;99.90;;;;;;5081968;28;20055;-65
2022/03/03 01:45:02;;;;;;;40.38;22.42;;;1.80;99.90;;;;;;5061562;28;20040;-65
2022/03/03 01:47:30;;;;;;;32.72;17.58;;;1.80;99.90;;;;;;5062305;28;20510;-65
2022/03/03 01:49:57;;;;;;;30.60;18.10;;;1.80;99.90;;;;;;5062473;28;20632;-65
2022/03/03 01:52:26;;;;;;;34.90;16.90;;;1.80;99.90;;;;;;5070157;28;20049;-65
2022/03/03 01:54:52;;;;;;;34.03;17.95;;;1.90;99.90;;;;;;5061948;28;20448;-65
2022/03/03 01:57:21;;;;;;;31.30;17.17;;;1.90;99.90;;;;;;5061836;28;20041;-65
2022/03/03 01:59:48;;;;;;;30.00;16.85;;;1.90;99.90;;;;;;5063343;28;20185;-65
2022/03/03 02:02:16;;;;;;;26.27;17.20;;;1.90;99.90;;;;;;5078504;28;20097;-65
2022/03/03 02:04:43;;;;;;;30.60;16.92;;;1.90;99.90;;;;;;5082008;28;20048;-65
2022/03/03 02:07:10;;;;;;;30.20;16.50;;;1.90;99.90;;;;;;5082414;28;20044;-65
2022/03/03 02:09:39;;;;;;;35.30;17.60;;;1.80;99.90;;;;;;5082616;28;20105;-65
2022/03/03 02:12:06;;;;;;;25.80;14.95;;;1.80;99.90;;;;;;5082827;28;20464;-65
2022/03/03 02:14:45;;;;;;;31.90;16.88;;;1.80;99.90;;;;;;5081362;28;20118;-65
2022/03/03 02:17:13;;;;;;;29.35;14.85;;;1.70;99.90;;;;;;5082444;28;20052;-65
2022/03/03 02:19:40;;;;;;;25.95;16.30;;;1.70;99.90;;;;;;5082388;28;20073;-65
2022/03/03 02:22:08;;;;;;;27.75;14.80;;;1.70;99.90;;;;;;5082639;28;20071;-65
2022/03/03 02:24:36;;;;;;;27.35;14.52;;;1.60;99.90;;;;;;5081700;28;20052;-65
2022/03/03 02:27:04;;;;;;;28.90;14.15;;;1.60;99.90;;;;;;5082634;28;20102;-65
2022/03/03 02:29:32;;;;;;;23.42;13.60;;;1.50;99.90;;;;;;5082560;28;20044;-65
2022/03/03 02:32:01;;;;;;;29.17;15.13;;;1.50;99.90;;;;;;5081914;28;20048;-65
2022/03/03 02:34:28;;;;;;;21.35;13.38;;;1.50;99.90;;;;;;5066737;28;20082;-65
2022/03/03 02:36:55;;;;;;;;;;;1.50;99.90;;;;;;5062471;28;20064;-65
2022/03/03 02:39:22;;;;;;;23.27;14.07;;;1.40;99.90;;;;;;5062326;28;19924;-65
2022/03/03 02:41:49;;;;;;;22.35;13.43;;;1.40;99.90;;;;;;5061460;28;20044;-65
2022/03/03 02:44:16;;;;;;;;;;;1.30;99.90;;;;;;5077175;28;20047;-65
2022/03/03 02:46:43;;;;;;;23.05;13.07;;;1.30;99.90;;;;;;5081661;28;20396;-65
2022/03/03 02:49:10;;;;;;;28.92;14.68;;;1.30;99.90;;;;;;5083901;28;20051;-65
2022/03/03 02:51:36;;;;;;;;;;;1.20;99.90;;;;;;5079540;28;20056;-65
2022/03/03 02:54:04;;;;;;;27.67;14.07;;;1.20;99.90;;;;;;5045815;28;19933;-65
2022/03/03 02:56:30;;;;;;;23.88;13.93;;;1.20;99.90;;;;;;5045494;28;20052;-65
2022/03/03 02:58:57;;;;;;;;;;;1.20;99.90;;;;;;5045505;28;20060;-65
2022/03/03 03:01:24;;;;;;;22.42;12.75;;;1.10;99.90;;;;;;5070399;28;19924;-65
2022/03/03 03:03:51;;;;;;;22.90;13.15;;;1.10;99.90;;;;;;5084425;28;20587;-65
2022/03/03 03:06:19;;;;;;;23.42;12.70;;;1.10;99.90;;;;;;5085890;28;20131;-65
2022/03/03 03:08:45;;;;;;;22.90;13.38;;;1.10;99.90;;;;;;5084808;28;20039;-65
2022/03/03 03:11:12;;;;;;;26.90;13.63;;;1.00;99.90;;;;;;5085507;28;20040;-65
2022/03/03 03:13:39;;;;;;;23.92;12.45;;;1.00;99.90;;;;;;5084812;28;20040;-65
2022/03/03 03:16:08;;;;;;;23.33;11.73;;;1.00;99.90;;;;;;5085481;28;20568;-65
2022/03/03 03:18:35;;;;;;;26.08;12.55;;;1.00;99.90;;;;;;5069357;28;20047;-65
2022/03/03 03:21:02;;;;;;;;;;;0.90;99.90;;;;;;5045205;28;20103;-65
2022/03/03 03:23:28;;;;;;;25.33;12.95;;;0.90;99.90;;;;;;5044605;28;20725;-65
2022/03/03 03:25:55;;;;;;;22.83;12.82;;;0.90;99.90;;;;;;5044956;28;20033;-65
2022/03/03 03:28:23;;;;;;;22.63;13.25;;;0.90;99.90;;;;;;5044835;28;20053;-65
2022/03/03 03:30:51;;;;;;;21.40;12.20;;;0.90;99.90;;;;;;5044960;28;20037;-65
2022/03/03 03:33:18;;;;;;;20.15;10.25;;;0.90;99.90;;;;;;5054166;28;20097;-65
2022/03/03 03:35:45;;;;;;;;;;;0.90;99.90;;;;;;5085943;28;20048;-65
2022/03/03 03:38:11;;;;;;;20.80;12.70;;;0.90;99.90;;;;;;5084724;28;20107;-65
2022/03/03 03:40:38;;;;;;;;;;;0.90;99.90;;;;;;5085719;28;20036;-65
2022/03/03 03:43:05;;;;;;;22.30;12.13;;;0.90;99.90;;;;;;5078555;28;19989;-65
2022/03/03 03:45:33;;;;;;;22.35;13.20;;;0.90;99.90;;;;;;5064452;28;20041;-65
2022/03/03 03:48:01;;;;;;;23.65;12.85;;;0.90;99.90;;;;;;5064369;28;20068;-65
2022/03/03 03:50:28;;;;;;;22.17;12.80;;;0.90;99.90;;;;;;5064337;28;20052;-65
2022/03/03 03:52:55;;;;;;;24.13;13.63;;;0.90;99.90;;;;;;5072093;28;20053;-65
2022/03/03 03:55:23;;;;;;;22.50;12.75;;;1.00;99.90;;;;;;5064061;28;20049;-65
2022/03/03 03:57:49;;;;;;;21.92;12.43;;;1.00;99.90;;;;;;5064203;28;20048;-65
2022/03/03 04:00:16;;;;;;;;;;;1.00;99.90;;;;;;5068177;28;20036;-65
2022/03/03 04:02:44;;;;;;;22.77;13.25;;;1.00;99.90;;;;;;5079863;28;20411;-65
2022/03/03 04:05:13;;;;;;;26.20;13.00;;;1.00;99.90;;;;;;5083756;28;20044;-65
2022/03/03 04:07:41;;;;;;;20.63;12.60;;;1.00;99.90;;;;;;5084374;28;20052;-65
2022/03/03 04:10:08;;;;;;;25.67;13.90;;;1.00;99.90;;;;;;5083874;28;20048;-65
2022/03/03 04:12:35;;;;;;;27.25;14.88;;;1.00;99.90;;;;;;5083302;28;20596;-65
2022/03/03 04:15:03;;;;;;;26.52;14.90;;;1.00;99.90;;;;;;5083525;28;20497;-65
2022/03/03 04:17:30;;;;;;;32.95;14.93;;;1.10;99.90;;;;;;5083627;28;20052;-65
2022/03/03 04:20:04;;;;;;;29.75;14.02;;;1.10;99.90;;;;;;5084445;28;20044;-65
2022/03/03 04:22:31;;;;;;;24.95;13.93;;;1.10;99.90;;;;;;5083784;28;20419;-65
2022/03/03 04:24:57;;;;;;;21.98;13.10;;;1.10;99.90;;;;;;5083411;28;20047;-65
2022/03/03 04:27:25;;;;;;;22.88;13.32;;;1.10;99.90;;;;;;5083522;28;20127;-65
2022/03/03 04:29:52;;;;;;;24.05;14.88;;;1.10;99.90;;;;;;5083826;28;20121;-65
2022/03/03 04:32:19;;;;;;;26.98;13.68;;;1.20;99.90;;;;;;5083719;28;20040;-65
2022/03/03 04:34:46;;;;;;;22.92;13.05;;;1.20;99.90;;;;;;5065403;28;20079;-65
2022/03/03 04:37:13;;;;;;;26.40;15.13;;;1.20;99.90;;;;;;5063705;28;20580;-65
2022/03/03 04:39:40;;;;;;;27.20;15.50;;;1.20;99.90;;;;;;5063576;28;20049;-65
2022/03/03 04:42:07;;;;;;;28.75;14.55;;;1.20;99.90;;;;;;5064077;28;20040;-65
2022/03/03 04:44:34;;;;;;;;;;;1.20;99.90;;;;;;5080576;28;20051;-65
2022/03/03 04:47:01;;;;;;;31.48;13.93;;;1.20;99.90;;;;;;5083628;28;19924;-65
2022/03/03 04:49:28;;;;;;;26.20;14.32;;;1.30;99.90;;;;;;5083381;28;20618;-65
2022/03/03 04:51:54;;;;;;;;;;;1.30;99.90;;;;;;5073491;28;20102;-65
2022/03/03 04:54:21;;;;;;;23.05;13.20;;;1.30;99.90;;;;;;5042417;28;19924;-65
2022/03/03 04:56:48;;;;;;;22.23;13.63;;;1.30;99.90;;;;;;5043243;28;20687;-65
2022/03/03 04:59:15;;;;;;;23.13;13.90;;;1.30;99.90;;;;;;5043471;28;20070;-65
2022/03/03 05:01:42;;;;;;;;;;;1.30;99.90;;;;;;5063381;28;20075;-64
2022/03/03 05:04:09;;;;;;;27.00;13.30;;;1.30;99.90;;;;;;5062672;28;19920;-65
2022/03/03 05:06:35;;;;;;;;;;;1.30;99.90;;;;;;5063620;28;20036;-64
2022/03/03 05:09:02;;;;;;;26.85;12.55;;;1.30;99.90;;;;;;5063033;28;19956;-65
2022/03/03 05:11:29;;;;;;;23.60;12.70;;;1.30;99.90;;;;;;5062115;28;20516;-65
2022/03/03 05:13:56;;;;;;;;;;;1.30;99.90;;;;;;5062930;28;20048;-64
2022/03/03 05:16:23;;;;;;;24.98;13.80;;;1.30;99.90;;;;;;5063122;28;19921;-64
2022/03/03 05:18:49;;;;;;;23.25;13.23;;;1.20;99.90;;;;;;5062639;28;20054;-64
2022/03/03 05:21:16;;;;;;;25.90;14.18;;;1.20;99.90;;;;;;5063217;28;20044;-64
2022/03/03 05:23:43;;;;;;;;;;;1.20;99.90;;;;;;5062572;28;20036;-65
2022/03/03 05:26:10;;;;;;;24.13;14.65;;;1.20;99.90;;;;;;5062979;28;19928;-65
2022/03/03 05:28:36;;;;;;;;;;;1.10;99.90;;;;;;5062989;28;20101;-64
2022/03/03 05:31:03;;;;;;;26.63;13.52;;;1.20;99.90;;;;;;5062758;28;19928;-64
2022/03/03 05:33:32;;;;;;;27.58;15.60;;;1.10;99.90;;;;;;5068075;28;20068;-64
2022/03/03 05:36:02;;;;;;;27.15;16.05;;;1.10;99.90;;;;;;5082907;28;20082;-64
2022/03/03 05:38:31;;;;;;;27.90;15.25;;;1.00;99.90;;;;;;5083060;28;20743;-64
2022/03/03 05:40:59;;;;;;;26.73;13.90;;;1.00;99.90;;;;;;5082602;28;20109;-64
2022/03/03 05:43:27;;;;;;;27.70;14.15;;;0.90;99.90;;;;;;5074032;28;20105;-64
2022/03/03 05:45:55;;;;;;;33.60;16.08;;;0.90;99.90;;;;;;5062085;28;20068;-56
2022/03/03 05:48:25;;;;;;;62.20;22.55;;;0.80;99.90;;;;;;5062642;28;20616;-57
2022/03/03 05:50:54;;;;;;;30.27;15.82;;;0.70;99.90;;;;;;5062804;28;20052;-61
2022/03/03 05:53:22;;;;;;;33.17;17.10;;;0.60;99.90;;;;;;5068960;28;20129;-61
2022/03/03 05:55:55;;;;;;;28.92;14.98;;;0.60;99.90;;;;;;5062278;28;20049;-60
2022/03/03 05:58:28;;;;;;;29.75;15.43;;;0.50;99.90;;;;;;5062152;28;20516;-61
2022/03/03 06:00:58;;;;;;;29.90;16.50;;;0.50;99.90;;;;;;5069098;28;20044;-60
2022/03/03 06:03:29;;;;;;;33.58;17.05;;;0.40;99.90;;;;;;5081609;28;20040;-61
2022/03/03 06:06:03;;;;;;;41.90;17.58;;;0.40;99.90;;;;;;5082769;28;20809;-58
2022/03/03 06:08:39;;;;;;;26.52;14.15;;;0.40;99.90;;;;;;5081639;28;20052;-58
2022/03/03 06:11:12;;;;;;;24.83;13.57;;;0.40;99.90;;;;;;5082623;28;20055;-58
2022/03/03 06:13:47;;;;;;;35.42;13.82;;;0.30;99.90;;;;;;5081254;28;20051;-58
2022/03/03 06:16:21;;;;;;;28.17;15.77;;;0.40;99.90;;;;;;5082540;28;20055;-58
2022/03/03 06:18:49;;;;;;;31.17;15.52;;;0.40;99.90;;;;;;5081836;28;20075;-58
2022/03/03 06:21:17;;;;;;;29.42;16.42;;;0.40;99.90;;;;;;5082210;28;20065;-58
2022/03/03 06:23:44;;;;;;;31.65;17.52;;;0.40;99.90;;;;;;5081916;28;20052;-58
2022/03/03 06:26:15;;;;;;;29.85;16.60;;;0.40;99.90;;;;;;5085035;28;20093;-58
2022/03/03 06:28:41;;;;;;;29.95;16.27;;;0.40;99.90;;;;;;5086479;28;20056;-58
2022/03/03 06:31:09;;;;;;;25.83;14.48;;;0.50;99.90;;;;;;5076055;28;20138;-60
2022/03/03 06:33:37;;;;;;;28.45;15.55;;;0.60;99.90;;;;;;5047147;28;20052;-60
2022/03/03 06:36:04;;;;;;;25.10;14.65;;;0.60;99.90;;;;;;5060613;28;20180;-62
2022/03/03 06:38:32;;;;;;;23.83;14.30;;;0.70;99.90;;;;;;5051107;28;20076;-59
2022/03/03 06:41:05;;;;;;;23.25;13.95;;;0.90;99.90;;;;;;5053493;28;20051;-59
2022/03/03 06:43:33;;;;;;;27.95;14.50;;;1.00;99.90;;;;;;5063081;28;20105;-60
2022/03/03 06:46:00;;;;;;;26.40;15.93;;;1.30;99.90;;;;;;5074481;28;20083;-59
2022/03/03 06:48:27;;;;;;;31.15;16.00;;;1.50;99.90;;;;;;5075715;28;20055;-58
2022/03/03 06:50:55;;;;;;;29.27;15.68;;;1.80;99.90;;;;;;5033374;28;20102;-60
2022/03/03 06:53:30;;;;;;;31.38;16.88;;;2.00;99.90;;;;;;5056405;28;20037;-59
2022/03/03 06:56:08;;;;;;;31.33;17.00;;;2.40;99.90;;;;;;5061490;28;20089;-59
2022/03/03 06:58:36;;;;;;;29.33;17.85;;;2.70;99.90;;;;;;5027252;28;20045;-60
2022/03/03 07:01:07;;;;;;;40.92;18.38;;;2.90;99.90;;;;;;5039400;28;20517;-63
2022/03/03 07:03:34;;;;;;;36.90;17.77;;;3.10;99.90;;;;;;5048300;28;20048;-58
2022/03/03 07:06:03;;;;;;;28.38;15.82;;;3.30;99.90;;;;;;5018674;28;20041;-61
2022/03/03 07:08:35;;;;;;;35.30;18.52;;;3.60;99.90;;;;;;5009327;28;20537;-59
2022/03/03 07:11:02;;;;;;;32.53;17.33;;;3.80;99.90;;;;;;5022616;28;20521;-59
2022/03/03 07:13:30;;;;;;;35.80;17.67;;;4.20;99.90;;;;;;5007639;28;20501;-61
2022/03/03 07:16:34;;;;;;;44.95;16.80;;;4.40;99.90;;;;;;5007861;28;20045;-63
2022/03/03 07:19:03;;;;;;;33.33;15.93;;;4.60;99.70;;;;;;5022978;28;20624;-63
2022/03/03 07:22:07;;;;;;;32.22;17.52;;;4.90;98.00;;;;;;5028305;28;20053;-58
2022/03/03 07:24:45;;;;;;;34.05;17.70;;;5.30;97.00;;;;;;5006039;28;20708;-66
2022/03/03 07:27:23;;;;;;;33.20;17.80;;;5.60;95.50;;;;;;5026585;28;20060;-74
2022/03/03 07:29:52;;;;;;;;;;;5.90;94.20;;;;;;5027754;28;20053;-65
2022/03/03 07:32:24;;;;;;;30.67;15.25;;;6.30;93.50;;;;;;5029032;28;20839;-59
2022/03/03 07:34:58;;;;;;;28.35;14.73;;;6.60;92.20;;;;;;5063806;28;20048;-59
2022/03/03 07:37:32;;;;;;;34.40;16.88;;;7.00;90.30;;;;;;5065621;28;20163;-58
2022/03/03 07:40:06;;;;;;;32.05;16.85;;;7.30;83.60;;;;;;5054623;28;20040;-59
2022/03/03 07:42:33;;;;;;;33.30;17.77;;;7.50;82.30;;;;;;5047794;28;20040;-59
2022/03/03 07:45:05;;;;;;;29.75;16.83;;;7.70;82.50;;;;;;5029134;28;20111;-58
2022/03/03 07:47:33;;;;;;;27.15;15.38;;;8.00;81.60;;;;;;5037372;28;20143;-59
2022/03/03 07:50:00;;;;;;;26.52;16.08;;;8.40;80.30;;;;;;5046437;28;20114;-59
2022/03/03 07:52:28;;;;;;;30.85;16.00;;;8.60;77.30;;;;;;5061417;28;20498;-59
2022/03/03 07:54:55;;;;;;;26.73;14.88;;;8.80;73.70;;;;;;5055901;28;20716;-59
2022/03/03 07:57:22;;;;;;;;;;;8.90;74.20;;;;;;5049188;28;20037;-59
2022/03/03 08:00:03;;;;;;;25.23;15.53;;;9.10;73.00;;;;;;5045812;28;19932;-59
2022/03/03 08:02:32;;;;;;;31.08;16.00;;;9.40;71.60;;;;;;5031290;28;20048;-59
2022/03/03 08:05:07;;;;;;;27.67;15.07;;;9.60;70.20;;;;;;5040387;28;20041;-59
2022/03/03 08:07:46;;;;;;;25.23;15.02;;;9.80;70.00;;;;;;5026102;28;20051;-60
2022/03/03 08:10:15;;;;;;;29.88;16.02;;;10.10;68.70;;;;;;5007751;28;20048;-54
2022/03/03 08:12:43;;;;;;;25.42;15.30;;;10.40;67.70;;;;;;5005567;28;20045;-54
2022/03/03 08:15:11;;;;;;;30.27;16.02;;;10.50;65.50;;;;;;5020166;28;20114;-59
2022/03/03 08:17:40;;;;;;;23.45;12.68;;;10.70;65.00;;;;;;5011724;28;20578;-59
2022/03/03 08:20:09;;;;;;;28.58;15.75;;;10.90;68.40;;;;;;5011435;28;20581;-61
2022/03/03 08:22:38;;;;;;;28.67;16.13;;;11.20;64.70;;;;;;5011400;28;20060;-60
2022/03/03 08:25:08;;;;;;;28.08;16.10;;;11.30;62.70;;;;;;5009282;28;20845;-59
2022/03/03 08:27:37;;;;;;;28.13;16.85;;;11.40;60.90;;;;;;5022616;28;20048;-57
2022/03/03 08:30:05;;;;;;;29.83;18.60;;;11.60;61.20;;;;;;5022915;28;20586;-56
2022/03/03 08:32:41;;;;;;;25.50;16.00;;;11.80;59.30;;;;;;5008956;28;20041;-57
2022/03/03 08:35:18;;;;;;;29.10;15.55;;;12.00;58.60;;;;;;5018126;28;20128;-57
2022/03/03 08:37:51;;;;;;;28.73;15.80;;;12.20;57.20;;;;;;5026044;28;20422;-56
2022/03/03 08:40:18;;;;;;;26.30;15.23;;;12.40;56.60;;;;;;5024666;28;20049;-57
2022/03/03 08:42:48;;;;;;;28.17;16.30;;;12.50;56.00;;;;;;5030807;28;20186;-57
2022/03/03 08:45:19;;;;;;;27.63;15.18;;;12.70;55.70;;;;;;5025646;28;20777;-60
2022/03/03 08:47:55;;;;;;;25.17;15.98;;;12.80;55.90;;;;;;5024629;28;20060;-57
2022/03/03 08:50:30;;;;;;;27.33;16.70;;;13.10;54.80;;;;;;5026744;28;20055;-57
2022/03/03 08:52:58;;;;;;;28.30;16.38;;;13.20;54.60;;;;;;5062835;28;20048;-57
2022/03/03 08:55:27;;;;;;;23.77;15.55;;;13.20;54.70;;;;;;5008424;28;20037;-57
2022/03/03 08:57:54;;;;;;;28.52;15.13;;;13.30;54.40;;;;;;5030113;28;20109;-57
2022/03/03 09:00:22;;;;;;;27.05;16.23;;;13.30;53.90;;;;;;5019048;28;20125;-55
2022/03/03 09:02:49;;;;;;;33.60;17.95;;;13.30;53.80;;;;;;5047942;28;20036;-59
2022/03/03 09:05:17;;;;;;;28.80;16.70;;;13.30;52.60;;;;;;5049557;28;20585;-56
2022/03/03 09:07:45;;;;;;;29.52;17.85;;;13.30;51.40;;;;;;5053383;28;20144;-57
2022/03/03 09:10:13;;;;;;;30.77;16.98;;;13.20;51.40;;;;;;5062318;28;20044;-56
2022/03/03 09:12:40;;;;;;;32.47;18.00;;;13.20;51.50;;;;;;5065836;28;20102;-57
2022/03/03 09:15:09;;;;;;;27.10;17.95;;;13.10;51.50;;;;;;5050618;28;20313;-56
2022/03/03 09:17:37;;;;;;;27.40;17.95;;;13.10;51.00;;;;;;5042084;28;20834;-55
2022/03/03 09:20:07;;;;;;;31.77;18.20;;;13.10;50.60;;;;;;5045492;28;20047;-57
2022/03/03 09:22:34;;;;;;;31.58;18.30;;;13.10;50.40;;;;;;5051694;28;20059;-56
2022/03/03 09:25:01;;;;;;;31.85;19.17;;;13.10;51.00;;;;;;5051478;28;20039;-57
2022/03/03 09:27:29;;;;;;;30.63;18.23;;;13.30;51.90;;;;;;5053156;28;20040;-55
2022/03/03 09:29:55;;;;;;;;;;;13.50;51.60;;;;;;5064672;28;20113;-57
2022/03/03 09:32:22;;;;;;;26.00;17.35;;;13.70;51.80;;;;;;5065951;28;19932;-63
2022/03/03 09:34:49;;;;;;;;;;;13.80;51.40;;;;;;5047885;28;20688;-60
2022/03/03 09:37:16;;;;;;;31.25;18.55;;;13.90;50.20;;;;;;5013732;28;19971;-56
2022/03/03 09:39:48;;;;;;;35.50;17.95;;;14.00;50.40;;;;;;5031049;28;20044;-56
2022/03/03 09:42:15;;;;;;;38.33;19.50;;;14.10;51.70;;;;;;5024437;28;20222;-54
2022/03/03 09:44:42;;;;;;;29.90;19.60;;;14.30;50.70;;;;;;5059943;28;20585;-55
2022/03/03 09:47:13;;;;;;;32.20;19.58;;;14.40;49.20;;;;;;5066224;28;20145;-54
2022/03/03 09:49:40;;;;;;;30.55;20.02;;;14.60;50.20;;;;;;5065793;28;20312;-53
2022/03/03 09:52:11;;;;;;;;;;;14.80;50.20;;;;;;5052450;28;20365;-56
2022/03/03 09:54:38;;;;;;;36.10;21.52;;;15.00;49.10;;;;;;5025285;28;20014;-55
2022/03/03 09:57:05;;;;;;;38.20;21.30;;;15.10;47.20;;;;;;5025760;28;20524;-55
2022/03/03 09:59:32;;;;;;;;;;;15.30;47.40;;;;;;5030098;28;20037;-57
2022/03/03 10:02:05;;;;;;;38.38;22.98;;;15.40;44.90;;;;;;5051573;28;19946;-58
2022/03/03 10:04:33;;;;;;;38.38;22.40;;;15.60;44.60;;;;;;5048344;28;20049;-51
2022/03/03 10:07:09;;;;;;;34.95;21.52;;;15.70;45.00;;;;;;5048775;28;20045;-50
2022/03/03 10:09:59;;;;;;;37.00;23.65;;;15.80;44.50;;;;;;5049205;28;20633;-51
2022/03/03 10:12:46;;;;;;;36.75;21.60;;;15.90;43.20;;;;;;5049027;28;20048;-48
2022/03/03 10:15:14;;;;;;;34.47;21.00;;;16.10;45.20;;;;;;5048472;28;20041;-56
2022/03/03 10:17:41;;;;;;;35.10;21.85;;;16.40;44.60;;;;;;5049317;28;20573;-54
2022/03/03 10:20:09;;;;;;;32.55;21.20;;;16.70;43.20;;;;;;5047635;28;20044;-55
2022/03/03 10:22:42;;;;;;;37.08;21.90;;;16.90;41.20;;;;;;5047920;28;20119;-56
2022/03/03 10:25:11;;;;;;;30.45;20.02;;;16.90;41.60;;;;;;5046998;28;20044;-57
2022/03/03 10:27:38;;;;;;;32.90;21.08;;;16.90;41.50;;;;;;5048574;28;20044;-57
2022/03/03 10:30:08;;;;;;;35.67;21.67;;;17.00;42.10;;;;;;5047700;28;20236;-57
2022/03/03 10:32:36;;;;;;;34.95;20.33;;;17.10;42.00;;;;;;5047764;28;20049;-56
2022/03/03 10:35:18;;;;;;;32.92;21.08;;;17.30;41.60;;;;;;5059404;28;20251;-58
2022/03/03 10:37:46;;;;;;;38.97;21.60;;;17.50;41.80;;;;;;5054133;28;20032;-57
2022/03/03 10:40:16;;;;;;;37.00;21.20;;;17.80;43.20;;;;;;5054391;28;20044;-56
2022/03/03 10:42:50;;;;;;;34.92;21.17;;;18.00;43.70;;;;;;5046225;28;20674;-58
2022/03/03 10:45:19;;;;;;;34.33;21.50;;;18.00;44.40;;;;;;5027563;28;20224;-58
2022/03/03 10:48:00;;;;;;;33.42;22.00;;;18.00;44.90;;;;;;5036185;28;20098;-56
2022/03/03 10:50:47;;;;;;;38.20;21.42;;;18.10;44.80;;;;;;5033652;28;20051;-55
2022/03/03 10:53:18;;;;;;;30.47;22.47;;;18.00;46.10;;;;;;5012063;28;20053;-55
2022/03/03 10:56:05;;;;;;;33.00;21.58;;;17.80;46.10;;;;;;5008980;28;20447;-65
2022/03/03 10:58:49;;;;;;;30.70;21.45;;;17.60;46.30;;;;;;5000982;28;20068;-54
2022/03/03 11:01:20;;;;;;;37.30;21.33;;;17.20;44.90;;;;;;5039523;28;20497;-54
2022/03/03 11:03:50;;;;;;;35.75;23.98;;;16.90;46.40;;;;;;5054161;28;20035;-55
2022/03/03 11:06:19;;;;;;;39.05;24.23;;;16.80;47.40;;;;;;5056226;28;20047;-55
2022/03/03 11:08:50;;;;;;;30.65;23.23;;;16.70;47.70;;;;;;5062563;28;20043;-55
2022/03/03 11:11:18;;;;;;;32.53;23.75;;;16.70;48.80;;;;;;5052727;28;20044;-55
2022/03/03 11:13:49;;;;;;;39.60;23.88;;;16.60;49.10;;;;;;5057848;28;20182;-54
2022/03/03 11:16:20;;;;;;;30.48;24.08;;;16.60;49.10;;;;;;5052946;28;20104;-53
2022/03/03 11:18:48;;;;;;;38.13;25.35;;;16.50;50.00;;;;;;5020142;28;20041;-56
2022/03/03 11:21:16;;;;;;;31.65;24.23;;;16.60;50.40;;;;;;4990269;28;20045;-58
2022/03/03 11:23:51;;;;;;;36.83;24.25;;;16.50;49.70;;;;;;5013426;28;20041;-58
2022/03/03 11:26:26;;;;;;;32.95;23.42;;;16.40;49.60;;;;;;5027338;28;20535;-56
2022/03/03 11:28:59;;;;;;;32.78;22.63;;;16.30;50.90;;;;;;5011313;28;20551;-59
2022/03/03 11:31:32;;;;;;;34.33;24.48;;;16.30;50.50;;;;;;4992580;28;20049;-60
2022/03/03 11:34:36;;;;;;;29.83;22.80;;;16.30;50.50;;;;;;5029891;28;20051;-60
2022/03/03 11:37:15;;;;;;;40.85;24.83;;;16.30;49.90;;;;;;5050199;28;20044;-62
2022/03/03 11:39:57;;;;;;;34.88;24.98;;;16.30;49.90;;;;;;5052058;28;20410;-58
2022/03/03 11:42:32;;;;;;;35.78;24.05;;;16.30;49.80;;;;;;5050741;28;20851;-58
2022/03/03 11:45:18;;;;;;;35.92;24.73;;;16.30;48.80;;;;;;5030444;28;20085;-58
2022/03/03 11:47:48;;;;;;;37.85;24.75;;;16.10;47.40;;;;;;5034742;28;20748;-59
2022/03/03 11:50:23;;;;;;;38.35;26.15;;;16.10;49.10;;;;;;5035853;28;20299;-60
2022/03/03 11:53:15;;;;;;;32.60;24.58;;;16.10;49.30;;;;;;5034198;28;20055;-53
2022/03/03 11:55:48;;;;;;;38.90;25.73;;;16.10;49.00;;;;;;5009706;28;20759;-55
2022/03/03 11:58:27;;;;;;;36.50;25.75;;;16.20;49.10;;;;;;5022741;28;20186;-54
2022/03/03 12:00:57;;;;;;;36.65;25.95;;;16.20;48.10;;;;;;5021774;28;21156;-54
2022/03/03 12:03:26;;;;;;;41.67;27.77;;;16.30;47.70;;;;;;5002394;28;20078;-54
2022/03/03 12:06:11;;;;;;;38.08;25.00;;;16.10;47.10;;;;;;5007839;28;20049;-53
2022/03/03 12:08:42;;;;;;;38.10;26.63;;;15.80;48.40;;;;;;5039570;28;20171;-54
2022/03/03 12:11:13;;;;;;;40.63;25.13;;;15.80;48.70;;;;;;5046688;28;20070;-54
2022/03/03 12:13:41;;;;;;;43.17;27.83;;;15.90;48.20;;;;;;5044777;28;20136;-54
2022/03/03 12:16:30;;;;;;;35.70;24.80;;;16.00;47.40;;;;;;5046790;28;20339;-53
2022/03/03 12:18:57;;;;;;;38.60;26.77;;;16.00;47.70;;;;;;5046117;28;20124;-54
2022/03/03 12:21:43;;;;;;;43.88;28.00;;;16.10;45.70;;;;;;5045908;28;20040;-54
2022/03/03 12:24:22;;;;;;;45.20;28.70;;;16.10;44.60;;;;;;5045814;28;20063;-54
2022/03/03 12:26:59;;;;;;;47.17;30.80;;;16.20;45.00;;;;;;5046192;28;20090;-54
2022/03/03 12:29:41;;;;;;;42.30;28.33;;;16.30;43.80;;;;;;5046308;28;20148;-54
2022/03/03 12:32:36;;;;;;;51.33;29.50;;;16.40;44.10;;;;;;5045612;28;20044;-54
2022/03/03 12:35:09;;;;;;;48.83;29.98;;;16.50;44.10;;;;;;5064702;28;20054;-54
2022/03/03 12:37:43;;;;;;;42.25;28.77;;;16.60;44.00;;;;;;5066039;28;20105;-54
2022/03/03 12:40:18;;;;;;;38.40;26.95;;;16.70;43.50;;;;;;5065008;28;20052;-54
2022/03/03 12:42:47;;;;;;;41.72;27.88;;;16.80;43.20;;;;;;5062881;28;20048;-50
2022/03/03 12:45:19;;;;;;;40.35;27.85;;;16.90;43.20;;;;;;5045427;28;20052;-48
2022/03/03 12:47:53;;;;;;;43.70;30.23;;;17.10;43.50;;;;;;5045330;28;20040;-49
2022/03/03 12:50:26;;;;;;;48.95;29.13;;;17.10;42.70;;;;;;5031185;28;20598;-47
2022/03/03 12:53:10;;;;;;;46.53;30.60;;;17.10;40.40;;;;;;5031427;28;20189;-48
2022/03/03 12:55:38;;;;;;;42.60;28.73;;;16.80;42.40;;;;;;5025395;28;20044;-49
2022/03/03 12:58:06;;;;;;;44.67;27.42;;;16.70;43.80;;;;;;5023512;28;20048;-56